ローマ・レオナルド・ダ・ビンチ国際空港の過去48時間の天気

ローマ・レオナルド・ダ・ビンチ国際空港 (Roma Fiumicino)

現在時刻: 10/18 18:02 CEST (10/18 16:02 UTC) 以下の時間は現地時間です。

過去48時間のMETAR気象情報
時間 風向 風速(m/s) 視程 気温(℃) 湿度(%) 気圧(hPa) 天気現象
18 17:20 西 4 10km以上 21 60 1017
18 16:50 西 4 10km以上 21 60 1018
18 16:20 西 4 10km以上 21 64 1018
18 15:50 西 4 10km以上 22 57 1018
18 15:20 西 4 10km以上 22 57 1018
18 14:50 西 4 10km以上 22 57 1018
18 14:20 西 4 10km以上 22 53 1018
18 13:50 西 4 10km以上 22 57 1018
18 13:20 西 3 10km以上 23 53 1019
18 12:50 西 3 10km以上 22 53 1019
18 12:20 不定 2 10km以上 23 50 1019
18 11:50 東北東 2 10km以上 21 56 1019
18 11:20 東北東 2 10km以上 20 60 1019
18 10:50 東北東 3 10km以上 19 64 1019
18 10:20 東北東 2 10km以上 18 68 1019
18 09:50 東北東 2 10km以上 16 77 1019
18 09:20 3 10km以上 15 77 1019
18 08:50 3 10km以上 14 82 1019
18 08:20 2 10km以上 13 88 1019
18 07:50 2 10km以上 12 88 1019
18 07:20 東北東 1 10km以上 12 94 1019
18 06:50 東北東 2 10km以上 11 100 1019
18 06:20 2 10km以上 11 94 1019
18 05:50 1 10km以上 12 94 1019
18 05:20 2 10km以上 12 94 1019
18 04:50 東北東 1 10km以上 12 94 1019
18 04:20 東北東 1 10km以上 12 94 1019
18 03:50 北東 2 10km以上 11 100 1019
18 03:20 北北東 2 10km以上 11 100 1019
18 02:50 北東 2 10km以上 11 100 1019
18 02:20 東北東 1 10km以上 12 100 1019
18 01:50 北東 1 10km以上 12 100 1019
18 01:20 東北東 2 10km以上 13 94 1020
18 00:50 東北東 2 10km以上 13 94 1020
18 00:20 1 10km以上 13 100 1020
17 23:50 2 10km以上 14 88 1020
17 23:20 2 10km以上 14 94 1020
17 22:50 2 10km以上 14 94 1020
17 22:20 不定 1 10km以上 15 94 1020
17 21:50 東北東 2 10km以上 15 88 1019
17 21:20 東北東 2 10km以上 16 82 1019
17 20:50 北北西 1 10km以上 16 88 1019
17 20:20 西北西 2 10km以上 17 83 1019
17 19:50 西北西 2 10km以上 17 83 1019
17 19:20 西北西 2 10km以上 18 77 1019
17 18:50 西 2 10km以上 18 77 1019
17 18:20 西 3 10km以上 19 68 1019
17 17:50 西 3 10km以上 20 64 1019
17 17:20 西 3 10km以上 21 56 1019
17 15:20 西 4 10km以上 22 53 1019
17 14:50 西 4 10km以上 22 50 1019
17 14:20 西 4 10km以上 22 50 1019
17 13:50 西 4 10km以上 22 53 1019
17 13:20 西 2 10km以上 22 50 1020
17 12:50 不定 2 10km以上 22 50 1020
17 12:20 不定 2 10km以上 22 50 1020
17 11:50 東北東 2 10km以上 21 56 1020
17 11:20 東北東 2 10km以上 20 60 1020
17 10:50 東北東 3 10km以上 19 68 1020
17 10:20 東北東 3 10km以上 18 73 1020
17 09:50 東北東 3 10km以上 16 82 1020
17 09:20 東北東 3 10km以上 16 82 1020
17 08:50 東北東 2 10km以上 14 88 1020
17 08:20 2 10km以上 13 94 1020
17 07:50 2 10km以上 12 100 1019
17 07:20 2 10km以上 12 100 1019
17 06:50 2 10km以上 12 94 1019
17 06:20 2 10km以上 12 100 1019
17 05:50 1 10km以上 12 100 1019
17 05:20 2 10km以上 12 100 1019
17 04:50 2 10km以上 13 94 1019
17 04:20 2 10km以上 13 94 1019
17 03:50 東北東 1 10km以上 13 100 1019
17 03:20 北北東 2 10km以上 13 94 1020
17 02:50 北東 2 10km以上 12 100 1020
17 02:20 2 10km以上 12 100 1019
17 01:50 北北東 1 10km以上 13 94 1019
17 01:20 北北東 1 10km以上 13 100 1019
17 00:50 2 10km以上 14 94 1019
17 00:20 東北東 3 10km以上 14 94 1019
16 23:50 南東 2 10km以上 15 88 1019
16 23:20 東南東 3 10km以上 16 88 1019
16 22:50 北北東 2 10km以上 14 94 1019
16 22:20 不定 1 10km以上 14 94 1019
16 21:50 不定 1 10km以上 16 88 1019
16 21:20 北東 1 10km以上 15 94 1019
16 20:50 北北東 1 10km以上 16 88 1018
16 20:20 北東 1 10km以上 17 83 1018
16 19:50 1 10km以上 17 83 1018
16 19:20 北西 1 10km以上 18 77 1018
16 18:50 西 1 10km以上 19 73 1018
16 18:20 南西 2 10km以上 20 64 1018
LIRF 181520Z 26008KT CAVOK 21/13 Q1017 NOSIG
LIRF 181450Z 26008KT CAVOK 21/13 Q1018 NOSIG
LIRF 181420Z 26008KT 9999 FEW040 21/14 Q1018 NOSIG
LIRF 181350Z 27008KT 9999 FEW040 22/13 Q1018 NOSIG
LIRF 181320Z 26008KT 9999 FEW040 22/13 Q1018 NOSIG
LIRF 181250Z 27008KT 230V300 9999 FEW040 22/13 Q1018 NOSIG
LIRF 181220Z 27008KT 9999 FEW040 22/12 Q1018 NOSIG
LIRF 181150Z 27007KT 230V290 9999 FEW040 22/13 Q1018 NOSIG
LIRF 181120Z 28006KT 240V320 9999 FEW042 23/13 Q1019 NOSIG
LIRF 181050Z 27006KT 9999 FEW035 22/12 Q1019 NOSIG
LIRF 181020Z VRB03KT CAVOK 23/12 Q1019 NOSIG
LIRF 180950Z 07004KT 010V130 CAVOK 21/12 Q1019 NOSIG
LIRF 180920Z 06003KT 030V100 CAVOK 20/12 Q1019 NOSIG
LIRF 180850Z 07005KT CAVOK 19/12 Q1019 NOSIG
LIRF 180820Z 07004KT 040V100 CAVOK 18/12 Q1019 NOSIG
LIRF 180750Z 07004KT CAVOK 16/12 Q1019 NOSIG
LIRF 180720Z 08006KT CAVOK 15/11 Q1019 NOSIG
LIRF 180650Z 08005KT CAVOK 14/11 Q1019 NOSIG
LIRF 180620Z 09004KT CAVOK 13/11 Q1019 NOSIG
LIRF 180550Z 08004KT CAVOK 12/10 Q1019 NOSIG
LIRF 180520Z 07002KT CAVOK 12/11 Q1019 NOSIG
LIRF 180450Z 07003KT CAVOK 11/11 Q1019 NOSIG
LIRF 180420Z 10003KT CAVOK 11/10 Q1019 NOSIG
LIRF 180350Z 10002KT CAVOK 12/11 Q1019 NOSIG
LIRF 180320Z 08003KT CAVOK 12/11 Q1019 NOSIG
LIRF 180250Z 07002KT CAVOK 12/11 Q1019 NOSIG
LIRF 180220Z 06002KT CAVOK 12/11 Q1019 NOSIG
LIRF 180150Z 05004KT CAVOK 11/11 Q1019 NOSIG
LIRF 180120Z 03003KT CAVOK 11/11 Q1019 NOSIG
LIRF 180050Z 04003KT CAVOK 11/11 Q1019 NOSIG
LIRF 180020Z 07002KT CAVOK 12/12 Q1019 NOSIG
LIRF 172350Z 05002KT CAVOK 12/12 Q1019 NOSIG
LIRF 172320Z 06003KT CAVOK 13/12 Q1020 NOSIG
LIRF 172250Z 07003KT CAVOK 13/12 Q1020 NOSIG
LIRF 172220Z 08002KT CAVOK 13/13 Q1020 NOSIG
LIRF 172150Z 08004KT CAVOK 14/12 Q1020 NOSIG
LIRF 172120Z 08004KT CAVOK 14/13 Q1020 NOSIG
LIRF 172050Z 08004KT CAVOK 14/13 Q1020 NOSIG
LIRF 172020Z VRB02KT CAVOK 15/14 Q1020 NOSIG
LIRF 171950Z 07003KT CAVOK 15/13 Q1019 NOSIG
LIRF 171920Z 07003KT CAVOK 16/13 Q1019 NOSIG
LIRF 171850Z 33002KT CAVOK 16/14 Q1019 NOSIG
LIRF 171820Z 30003KT CAVOK 17/14 Q1019 NOSIG
LIRF 171750Z 30003KT CAVOK 17/14 Q1019 NOSIG
LIRF 171720Z 29003KT CAVOK 18/14 Q1019 NOSIG
LIRF 171650Z 28004KT CAVOK 18/14 Q1019 NOSIG
LIRF 171620Z 27005KT CAVOK 19/13 Q1019 NOSIG
LIRF 171550Z 27006KT CAVOK 20/13 Q1019 NOSIG
LIRF 171520Z 27006KT CAVOK 21/12 Q1019 NOSIG
LIRF 171320Z 27008KT CAVOK 22/12 Q1019 NOSIG
LIRF 171250Z 27008KT CAVOK 22/11 Q1019 NOSIG
LIRF 171220Z 27007KT CAVOK 22/11 Q1019 NOSIG
LIRF 171150Z 28007KT CAVOK 22/12 Q1019 NOSIG
LIRF 171120Z 27004KT 220V320 CAVOK 22/11 Q1020 NOSIG
LIRF 171050Z VRB03KT CAVOK 22/11 Q1020 NOSIG
LIRF 171020Z VRB03KT CAVOK 22/11 Q1020 NOSIG
LIRF 170950Z 07004KT 010V100 CAVOK 21/12 Q1020 NOSIG
LIRF 170920Z 07004KT 020V100 CAVOK 20/12 Q1020 NOSIG
LIRF 170850Z 07005KT CAVOK 19/13 Q1020 NOSIG
LIRF 170820Z 07006KT CAVOK 18/13 Q1020 NOSIG
LIRF 170750Z 06005KT CAVOK 16/13 Q1020 NOSIG
LIRF 170720Z 07005KT CAVOK 16/13 Q1020 NOSIG
LIRF 170650Z 06003KT CAVOK 14/12 Q1020 NOSIG
LIRF 170620Z 08003KT CAVOK 13/12 Q1020 NOSIG
LIRF 170550Z 08003KT CAVOK 12/12 Q1019 NOSIG
LIRF 170520Z 08003KT CAVOK 12/12 Q1019 NOSIG
LIRF 170450Z 08003KT CAVOK 12/11 Q1019 NOSIG
LIRF 170420Z 09003KT CAVOK 12/12 Q1019 NOSIG
LIRF 170350Z 08002KT CAVOK 12/12 Q1019 NOSIG
LIRF 170320Z 09004KT CAVOK 12/12 Q1019 NOSIG
LIRF 170250Z 09003KT CAVOK 13/12 Q1019 NOSIG
LIRF 170220Z 10003KT CAVOK 13/12 Q1019 NOSIG
LIRF 170150Z 07002KT CAVOK 13/13 Q1019 NOSIG
LIRF 170120Z 03003KT CAVOK 13/12 Q1020 NOSIG
LIRF 170050Z 04003KT CAVOK 12/12 Q1020 NOSIG
LIRF 170020Z 01003KT CAVOK 12/12 Q1019 NOSIG
LIRF 162350Z 02002KT CAVOK 13/12 Q1019 NOSIG
LIRF 162320Z 03002KT CAVOK 13/13 Q1019 NOSIG
LIRF 162250Z 10004KT CAVOK 14/13 Q1019 NOSIG
LIRF 162220Z 07005KT CAVOK 14/13 Q1019 NOSIG
LIRF 162150Z 13003KT CAVOK 15/13 Q1019 NOSIG
LIRF 162120Z 12005KT CAVOK 16/14 Q1019 NOSIG
LIRF 162050Z 03003KT 360V060 CAVOK 14/13 Q1019 NOSIG
LIRF 162020Z VRB02KT CAVOK 14/13 Q1019 NOSIG
LIRF 161950Z VRB01KT CAVOK 16/14 Q1019 NOSIG
LIRF 161920Z 04002KT CAVOK 15/14 Q1019 NOSIG
LIRF 161850Z 03002KT CAVOK 16/14 Q1018 NOSIG
LIRF 161820Z 04002KT CAVOK 17/14 Q1018 NOSIG
LIRF 161750Z 35002KT CAVOK 17/14 Q1018 NOSIG
LIRF 161720Z 32002KT CAVOK 18/14 Q1018 NOSIG
LIRF 161650Z 28002KT CAVOK 19/14 Q1018 NOSIG
LIRF 161620Z 22004KT CAVOK 20/13 Q1018 NOSIG